createdAt,value
2017-11-14T00:02:18.866Z,20.93
2017-11-14T00:40:38.701Z,20.84
2017-11-14T00:43:06.049Z,20.82
2017-11-14T00:45:33.915Z,20.83
2017-11-14T00:48:01.168Z,20.82
2017-11-14T00:50:28.336Z,20.80
2017-11-14T00:52:55.509Z,20.80
2017-11-14T00:55:22.744Z,20.79
2017-11-14T00:57:49.917Z,20.78
2017-11-14T01:00:17.161Z,20.77
2017-11-14T01:02:44.419Z,20.78
2017-11-14T01:05:11.621Z,20.77
2017-11-14T01:07:38.819Z,20.77
2017-11-14T01:10:06.034Z,20.76
2017-11-14T01:12:33.300Z,20.76
2017-11-14T01:15:00.528Z,20.75
2017-11-14T01:17:27.705Z,20.72
2017-11-14T01:19:54.892Z,20.73
2017-11-14T01:22:22.430Z,20.73
2017-11-14T01:24:49.611Z,20.72
2017-11-14T01:27:16.783Z,20.72
2017-11-14T01:29:44.033Z,20.70
2017-11-14T01:32:11.224Z,20.71
2017-11-14T01:34:38.422Z,20.69
2017-11-14T01:37:05.600Z,20.67
2017-11-14T01:39:32.820Z,20.68
2017-11-14T01:42:00.132Z,20.67
2017-11-14T01:44:27.353Z,20.67
2017-11-14T01:46:56.022Z,20.65
2017-11-14T01:49:23.262Z,20.64
2017-11-14T01:51:50.579Z,20.63
2017-11-14T01:54:17.829Z,20.63
2017-11-14T01:56:45.058Z,20.64
2017-11-14T01:59:12.211Z,20.63
2017-11-14T02:01:39.538Z,20.63
2017-11-14T02:04:06.770Z,20.67
2017-11-14T02:06:34.020Z,20.72
2017-11-14T02:09:01.229Z,20.73
2017-11-14T02:11:28.384Z,20.69
2017-11-14T02:13:55.590Z,20.64
2017-11-14T02:16:22.793Z,20.60
2017-11-14T02:18:49.982Z,20.53
2017-11-14T02:21:17.207Z,20.48
2017-11-14T02:23:44.432Z,20.48
2017-11-14T02:26:11.611Z,20.42
2017-11-14T02:28:38.908Z,20.37
2017-11-14T02:31:06.129Z,20.37
2017-11-14T02:33:33.353Z,20.33
2017-11-14T02:36:00.582Z,20.30
2017-11-14T02:38:27.784Z,20.29
2017-11-14T02:40:55.138Z,20.29
2017-11-14T02:43:22.374Z,20.27
2017-11-14T02:45:49.656Z,20.24
2017-11-14T02:48:17.101Z,20.25
2017-11-14T03:13:47.152Z,20.17
2017-11-14T03:16:14.404Z,20.17
2017-11-14T03:18:41.647Z,20.16
2017-11-14T03:21:08.836Z,20.15
2017-11-14T03:23:36.007Z,20.16
2017-11-14T03:26:03.229Z,20.13
2017-11-14T03:28:30.444Z,20.15
2017-11-14T03:30:57.664Z,20.16
2017-11-14T03:33:24.876Z,20.15
2017-11-14T03:35:52.101Z,20.14
2017-11-14T03:38:19.250Z,20.14
2017-11-14T03:40:46.450Z,20.14
2017-11-14T03:43:13.672Z,20.13
2017-11-14T03:45:40.877Z,20.13
2017-11-14T03:48:08.121Z,20.11
2017-11-14T03:50:35.385Z,20.11
2017-11-14T03:53:02.563Z,20.11
2017-11-14T03:55:29.801Z,20.14
2017-11-14T03:57:57.015Z,20.17
2017-11-14T04:00:24.256Z,20.23
2017-11-14T04:02:51.468Z,20.27
2017-11-14T04:05:18.644Z,20.33
2017-11-14T04:07:45.872Z,20.38
2017-11-14T04:10:13.079Z,20.42
2017-11-14T04:12:40.305Z,20.47
2017-11-14T04:15:07.494Z,20.50
2017-11-14T04:17:34.744Z,20.52
2017-11-14T04:20:01.922Z,20.56
2017-11-14T04:22:29.182Z,20.59
2017-11-14T04:24:56.368Z,20.63
2017-11-14T04:27:23.615Z,20.66
2017-11-14T04:29:50.862Z,20.67
2017-11-14T04:32:18.053Z,20.71
2017-11-14T04:34:45.332Z,20.74
2017-11-14T04:37:12.500Z,20.75
2017-11-14T04:39:39.769Z,20.77
2017-11-14T04:42:07.056Z,20.80
2017-11-14T04:44:34.216Z,20.80
2017-11-14T04:47:01.389Z,20.82
2017-11-14T04:49:28.612Z,20.84
2017-11-14T04:51:55.837Z,20.86
2017-11-14T04:54:23.004Z,20.87
2017-11-14T04:56:50.963Z,20.88
2017-11-14T04:59:18.186Z,20.90
2017-11-14T05:01:45.465Z,20.92
2017-11-14T05:04:12.733Z,20.95
2017-11-14T05:06:39.966Z,20.96
2017-11-14T05:09:07.341Z,20.94
2017-11-14T06:17:49.294Z,21.18
2017-11-14T06:20:16.528Z,21.19
2017-11-14T06:22:44.743Z,21.21
2017-11-14T06:25:11.958Z,21.22
2017-11-14T06:27:39.231Z,21.25
2017-11-14T06:30:06.453Z,21.23
2017-11-14T06:32:33.901Z,21.24
2017-11-14T06:35:01.181Z,21.26
2017-11-14T06:37:28.546Z,21.28
2017-11-14T07:03:09.625Z,21.40
2017-11-14T07:13:50.459Z,21.47
2017-11-14T16:16:39.480Z,23.55
2017-11-14T16:27:31.448Z,23.48
2017-11-14T16:41:28.170Z,23.39
2017-11-14T16:44:02.716Z,23.41
2017-11-14T16:46:30.036Z,23.40
2017-11-14T16:48:57.302Z,23.38
2017-11-14T16:54:17.609Z,23.36
2017-11-14T16:56:44.894Z,23.35
2017-11-14T16:59:12.230Z,23.31
2017-11-14T17:01:43.158Z,23.30
2017-11-14T17:04:10.384Z,23.31
2017-11-14T17:06:37.602Z,23.32
2017-11-14T17:09:17.461Z,23.30
2017-11-14T17:17:13.234Z,23.24
2017-11-14T17:19:40.548Z,23.21
2017-11-14T17:22:07.711Z,23.21
2017-11-14T17:24:34.974Z,23.20
2017-11-14T17:27:02.440Z,23.19
2017-11-14T17:29:29.665Z,23.16
2017-11-14T17:32:04.150Z,23.15
2017-11-14T17:34:31.665Z,23.15
2017-11-14T17:36:58.919Z,23.11
2017-11-14T17:39:26.147Z,23.13
2017-11-14T17:41:53.407Z,23.12
2017-11-14T17:44:20.705Z,23.13
2017-11-14T17:47:08.633Z,23.12
2017-11-14T17:49:35.870Z,23.12
2017-11-14T17:52:03.112Z,23.11
2017-11-14T17:54:30.402Z,23.12
2017-11-14T17:56:57.630Z,23.11
2017-11-14T17:59:24.875Z,23.09
2017-11-14T18:01:55.831Z,23.06
2017-11-14T18:04:44.184Z,23.08
2017-11-14T18:07:11.427Z,23.10
2017-11-14T18:09:38.742Z,23.10
2017-11-14T18:12:05.960Z,23.10
2017-11-14T18:14:33.204Z,23.10
2017-11-14T18:19:54.188Z,23.10
2017-11-14T18:22:21.477Z,23.10
2017-11-14T18:24:48.651Z,23.10
2017-11-14T18:27:15.972Z,23.09
2017-11-14T18:29:43.260Z,23.09
2017-11-14T18:32:32.054Z,23.10
2017-11-14T18:37:57.293Z,23.11
2017-11-14T18:40:24.599Z,23.10
2017-11-14T18:42:51.779Z,23.10
2017-11-14T18:45:19.068Z,23.09
2017-11-14T19:00:30.954Z,23.09
2017-11-14T19:02:58.268Z,23.07
2017-11-14T19:08:13.717Z,23.07
2017-11-14T19:10:41.081Z,23.06
2017-11-14T19:15:42.240Z,23.02
2017-11-14T19:18:09.568Z,23.03
2017-11-14T19:20:36.795Z,23.04
2017-11-14T19:23:04.149Z,23.03
2017-11-14T19:25:31.389Z,23.03
2017-11-14T19:27:58.684Z,23.02
2017-11-14T19:30:27.139Z,23.02
2017-11-14T19:32:54.438Z,23.01
2017-11-14T19:38:14.407Z,23.00
2017-11-14T19:40:41.630Z,23.00
2017-11-14T19:43:08.891Z,22.99
2017-11-14T19:45:36.104Z,22.99
2017-11-14T19:56:41.313Z,22.97
2017-11-14T20:01:54.243Z,22.96
2017-11-14T20:15:04.077Z,22.92
2017-11-14T20:17:31.302Z,22.92
2017-11-14T20:22:33.250Z,22.91
2017-11-14T20:25:00.522Z,22.90
2017-11-14T20:33:24.879Z,22.73
2017-11-14T20:35:52.150Z,22.67
2017-11-14T20:38:19.349Z,22.62
2017-11-14T20:40:46.592Z,22.58
2017-11-14T20:43:13.885Z,22.54
2017-11-14T20:58:00.760Z,22.28
2017-11-14T21:03:21.144Z,22.18
2017-11-14T21:05:48.475Z,22.16
2017-11-14T21:10:59.331Z,22.10
2017-11-14T21:13:26.634Z,22.08
2017-11-14T21:15:53.954Z,22.05
2017-11-14T21:18:21.291Z,22.02
2017-11-14T21:20:48.552Z,21.99
2017-11-14T21:23:15.739Z,21.96
2017-11-14T21:25:42.980Z,21.93
2017-11-14T21:28:10.365Z,21.90
2017-11-14T21:30:37.588Z,21.88
2017-11-14T21:33:04.843Z,21.85
2017-11-14T21:35:32.063Z,21.83
2017-11-14T21:37:59.496Z,21.81
2017-11-14T22:01:01.745Z,21.63
2017-11-14T22:03:28.913Z,21.61
2017-11-14T22:39:38.826Z,21.42
2017-11-14T22:42:06.107Z,21.40
2017-11-14T22:44:33.387Z,21.40
2017-11-14T23:36:37.647Z,21.16
2017-11-14T23:52:04.493Z,21.13
